sensor_id;sensor_type;location;lat;lon;timestamp;P1;durP1;ratioP1;P2;durP2;ratioP2
10142;SDS011;5112;54.088;13.446;2023-09-08T00:06:29;13.77;;;12.57;;
10142;SDS011;5112;54.088;13.446;2023-09-08T00:16:32;12.13;;;11.03;;
10142;SDS011;5112;54.088;13.446;2023-09-08T00:26:34;11.07;;;10.17;;
10142;SDS011;5112;54.088;13.446;2023-09-08T00:36:37;11.83;;;10.77;;
10142;SDS011;5112;54.088;13.446;2023-09-08T00:46:39;11.20;;;10.20;;
10142;SDS011;5112;54.088;13.446;2023-09-08T00:56:42;11.50;;;10.40;;
10142;SDS011;5112;54.088;13.446;2023-09-08T01:06:45;10.47;;;9.50;;
10142;SDS011;5112;54.088;13.446;2023-09-08T01:16:48;10.27;;;9.47;;
10142;SDS011;5112;54.088;13.446;2023-09-08T01:26:51;9.67;;;8.87;;
10142;SDS011;5112;54.088;13.446;2023-09-08T01:36:53;9.80;;;8.97;;
10142;SDS011;5112;54.088;13.446;2023-09-08T01:46:56;9.47;;;8.67;;
10142;SDS011;5112;54.088;13.446;2023-09-08T01:56:58;10.00;;;9.20;;
10142;SDS011;5112;54.088;13.446;2023-09-08T02:07:01;10.50;;;9.60;;
10142;SDS011;5112;54.088;13.446;2023-09-08T02:17:03;9.60;;;8.73;;
10142;SDS011;5112;54.088;13.446;2023-09-08T02:27:07;10.23;;;9.27;;
10142;SDS011;5112;54.088;13.446;2023-09-08T02:37:09;8.90;;;8.20;;
10142;SDS011;5112;54.088;13.446;2023-09-08T02:47:12;8.00;;;7.40;;
10142;SDS011;5112;54.088;13.446;2023-09-08T02:57:13;10.53;;;9.63;;
10142;SDS011;5112;54.088;13.446;2023-09-08T03:07:16;8.87;;;8.07;;
10142;SDS011;5112;54.088;13.446;2023-09-08T03:17:18;9.40;;;8.50;;
10142;SDS011;5112;54.088;13.446;2023-09-08T03:27:21;9.50;;;8.80;;
10142;SDS011;5112;54.088;13.446;2023-09-08T03:37:23;10.13;;;9.27;;
10142;SDS011;5112;54.088;13.446;2023-09-08T03:47:27;9.70;;;8.90;;
10142;SDS011;5112;54.088;13.446;2023-09-08T03:57:29;10.60;;;9.70;;
10142;SDS011;5112;54.088;13.446;2023-09-08T04:07:31;11.30;;;10.40;;
10142;SDS011;5112;54.088;13.446;2023-09-08T04:17:33;11.17;;;10.17;;
10142;SDS011;5112;54.088;13.446;2023-09-08T04:27:37;10.43;;;9.50;;
10142;SDS011;5112;54.088;13.446;2023-09-08T04:37:39;10.23;;;9.43;;
10142;SDS011;5112;54.088;13.446;2023-09-08T04:47:42;10.60;;;9.77;;
10142;SDS011;5112;54.088;13.446;2023-09-08T04:57:44;11.40;;;10.40;;
10142;SDS011;5112;54.088;13.446;2023-09-08T05:07:47;10.77;;;9.87;;
10142;SDS011;5112;54.088;13.446;2023-09-08T05:17:49;10.47;;;9.57;;
10142;SDS011;5112;54.088;13.446;2023-09-08T05:27:51;11.87;;;10.97;;
10142;SDS011;5112;54.088;13.446;2023-09-08T05:37:53;11.43;;;10.53;;
10142;SDS011;5112;54.088;13.446;2023-09-08T05:47:57;12.47;;;11.47;;
10142;SDS011;5112;54.088;13.446;2023-09-08T05:57:59;14.07;;;12.90;;
10142;SDS011;5112;54.088;13.446;2023-09-08T06:08:02;14.53;;;13.33;;
10142;SDS011;5112;54.088;13.446;2023-09-08T06:18:04;14.77;;;13.57;;
10142;SDS011;5112;54.088;13.446;2023-09-08T06:28:07;15.60;;;14.30;;
10142;SDS011;5112;54.088;13.446;2023-09-08T06:38:09;17.90;;;16.40;;
10142;SDS011;5112;54.088;13.446;2023-09-08T06:48:12;25.93;;;23.63;;
10142;SDS011;5112;54.088;13.446;2023-09-08T06:58:13;15.00;;;13.70;;
10142;SDS011;5112;54.088;13.446;2023-09-08T07:08:17;12.27;;;11.17;;
10142;SDS011;5112;54.088;13.446;2023-09-08T07:18:18;11.60;;;10.77;;
10142;SDS011;5112;54.088;13.446;2023-09-08T07:28:21;10.27;;;9.47;;
10142;SDS011;5112;54.088;13.446;2023-09-08T07:38:23;9.67;;;8.83;;
10142;SDS011;5112;54.088;13.446;2023-09-08T07:48:26;8.03;;;7.33;;
10142;SDS011;5112;54.088;13.446;2023-09-08T07:58:28;8.67;;;7.97;;
10142;SDS011;5112;54.088;13.446;2023-09-08T08:08:31;8.00;;;7.30;;
10142;SDS011;5112;54.088;13.446;2023-09-08T08:18:32;7.07;;;6.40;;
10142;SDS011;5112;54.088;13.446;2023-09-08T08:28:35;6.60;;;6.07;;
10142;SDS011;5112;54.088;13.446;2023-09-08T08:38:37;7.10;;;6.07;;
10142;SDS011;5112;54.088;13.446;2023-09-08T08:48:40;6.97;;;6.47;;
10142;SDS011;5112;54.088;13.446;2023-09-08T08:58:43;6.43;;;5.93;;
10142;SDS011;5112;54.088;13.446;2023-09-08T09:08:47;6.03;;;5.57;;
10142;SDS011;5112;54.088;13.446;2023-09-08T09:18:55;5.77;;;5.27;;
10142;SDS011;5112;54.088;13.446;2023-09-08T09:28:59;6.17;;;5.67;;
10142;SDS011;5112;54.088;13.446;2023-09-08T09:39:01;6.73;;;6.13;;
10142;SDS011;5112;54.088;13.446;2023-09-08T09:49:05;6.83;;;6.17;;
10142;SDS011;5112;54.088;13.446;2023-09-08T09:59:07;6.93;;;6.30;;
10142;SDS011;5112;54.088;13.446;2023-09-08T10:09:11;6.90;;;6.37;;
10142;SDS011;5112;54.088;13.446;2023-09-08T10:19:13;7.33;;;6.63;;
10142;SDS011;5112;54.088;13.446;2023-09-08T10:29:16;7.10;;;6.60;;
10142;SDS011;5112;54.088;13.446;2023-09-08T10:39:28;7.40;;;6.80;;
10142;SDS011;5112;54.088;13.446;2023-09-08T10:49:35;6.87;;;6.33;;
10142;SDS011;5112;54.088;13.446;2023-09-08T10:59:38;6.93;;;6.23;;
10142;SDS011;5112;54.088;13.446;2023-09-08T11:09:41;6.57;;;5.97;;
10142;SDS011;5112;54.088;13.446;2023-09-08T11:19:44;7.17;;;6.43;;
10142;SDS011;5112;54.088;13.446;2023-09-08T11:29:48;5.93;;;5.37;;
10142;SDS011;5112;54.088;13.446;2023-09-08T11:39:50;6.43;;;5.83;;
10142;SDS011;5112;54.088;13.446;2023-09-08T11:49:53;6.73;;;6.13;;
10142;SDS011;5112;54.088;13.446;2023-09-08T11:59:55;6.10;;;5.60;;
10142;SDS011;5112;54.088;13.446;2023-09-08T12:09:59;6.17;;;5.43;;
10142;SDS011;5112;54.088;13.446;2023-09-08T12:20:12;6.07;;;5.57;;
10142;SDS011;5112;54.088;13.446;2023-09-08T12:30:18;5.70;;;5.20;;
10142;SDS011;5112;54.088;13.446;2023-09-08T12:40:21;6.27;;;5.67;;
10142;SDS011;5112;54.088;13.446;2023-09-08T12:50:24;5.73;;;5.23;;
10142;SDS011;5112;54.088;13.446;2023-09-08T13:00:26;5.47;;;4.97;;
10142;SDS011;5112;54.088;13.446;2023-09-08T13:10:29;4.93;;;4.53;;
10142;SDS011;5112;54.088;13.446;2023-09-08T13:20:30;5.67;;;5.13;;
10142;SDS011;5112;54.088;13.446;2023-09-08T13:30:33;6.00;;;5.47;;
10142;SDS011;5112;54.088;13.446;2023-09-08T13:40:35;5.90;;;5.40;;
10142;SDS011;5112;54.088;13.446;2023-09-08T13:50:38;5.97;;;5.50;;
10142;SDS011;5112;54.088;13.446;2023-09-08T14:00:40;5.90;;;5.40;;
10142;SDS011;5112;54.088;13.446;2023-09-08T14:10:43;6.77;;;5.57;;
10142;SDS011;5112;54.088;13.446;2023-09-08T14:20:45;6.30;;;5.70;;
10142;SDS011;5112;54.088;13.446;2023-09-08T14:30:48;6.13;;;5.47;;
10142;SDS011;5112;54.088;13.446;2023-09-08T14:40:53;10.70;;;9.80;;
10142;SDS011;5112;54.088;13.446;2023-09-08T14:50:57;10.43;;;8.30;;
10142;SDS011;5112;54.088;13.446;2023-09-08T15:00:59;8.40;;;6.50;;
10142;SDS011;5112;54.088;13.446;2023-09-08T15:11:05;7.10;;;6.43;;
10142;SDS011;5112;54.088;13.446;2023-09-08T15:21:06;6.67;;;6.10;;
10142;SDS011;5112;54.088;13.446;2023-09-08T15:31:09;6.83;;;6.33;;
10142;SDS011;5112;54.088;13.446;2023-09-08T15:41:14;7.00;;;6.40;;
10142;SDS011;5112;54.088;13.446;2023-09-08T15:51:19;6.23;;;5.73;;
10142;SDS011;5112;54.088;13.446;2023-09-08T16:01:21;8.33;;;7.63;;
10142;SDS011;5112;54.088;13.446;2023-09-08T16:11:23;6.63;;;6.03;;
10142;SDS011;5112;54.088;13.446;2023-09-08T16:21:25;6.70;;;6.10;;
10142;SDS011;5112;54.088;13.446;2023-09-08T16:31:28;7.33;;;6.63;;
10142;SDS011;5112;54.088;13.446;2023-09-08T16:41:30;7.93;;;7.17;;
10142;SDS011;5112;54.088;13.446;2023-09-08T16:51:33;8.93;;;8.20;;
10142;SDS011;5112;54.088;13.446;2023-09-08T17:01:34;8.17;;;7.53;;
10142;SDS011;5112;54.088;13.446;2023-09-08T17:11:37;9.60;;;7.83;;
10142;SDS011;5112;54.088;13.446;2023-09-08T17:21:40;8.90;;;8.20;;
10142;SDS011;5112;54.088;13.446;2023-09-08T17:31:43;10.03;;;9.10;;
10142;SDS011;5112;54.088;13.446;2023-09-08T17:41:44;10.10;;;9.10;;
10142;SDS011;5112;54.088;13.446;2023-09-08T17:51:49;9.70;;;8.90;;
10142;SDS011;5112;54.088;13.446;2023-09-08T18:01:50;10.88;;;9.98;;
10142;SDS011;5112;54.088;13.446;2023-09-08T18:11:53;10.43;;;9.43;;
10142;SDS011;5112;54.088;13.446;2023-09-08T18:21:55;12.17;;;10.93;;
10142;SDS011;5112;54.088;13.446;2023-09-08T18:31:58;10.50;;;9.63;;
10142;SDS011;5112;54.088;13.446;2023-09-08T18:42:00;10.97;;;10.03;;
10142;SDS011;5112;54.088;13.446;2023-09-08T18:52:03;11.80;;;10.67;;
10142;SDS011;5112;54.088;13.446;2023-09-08T19:02:06;9.93;;;9.20;;
10142;SDS011;5112;54.088;13.446;2023-09-08T19:12:09;9.77;;;9.07;;
10142;SDS011;5112;54.088;13.446;2023-09-08T19:22:10;9.83;;;9.03;;
10142;SDS011;5112;54.088;13.446;2023-09-08T19:32:14;10.13;;;9.17;;
10142;SDS011;5112;54.088;13.446;2023-09-08T19:42:15;10.60;;;9.70;;
10142;SDS011;5112;54.088;13.446;2023-09-08T19:52:19;12.27;;;11.17;;
10142;SDS011;5112;54.088;13.446;2023-09-08T20:02:20;13.63;;;12.50;;
10142;SDS011;5112;54.088;13.446;2023-09-08T20:12:23;14.20;;;12.80;;
10142;SDS011;5112;54.088;13.446;2023-09-08T20:22:25;13.93;;;12.63;;
10142;SDS011;5112;54.088;13.446;2023-09-08T20:32:28;12.27;;;11.27;;
10142;SDS011;5112;54.088;13.446;2023-09-08T20:42:29;12.80;;;11.53;;
10142;SDS011;5112;54.088;13.446;2023-09-08T20:52:32;13.23;;;12.10;;
10142;SDS011;5112;54.088;13.446;2023-09-08T21:02:34;18.47;;;16.50;;
10142;SDS011;5112;54.088;13.446;2023-09-08T21:12:37;15.53;;;14.30;;
10142;SDS011;5112;54.088;13.446;2023-09-08T21:22:39;14.73;;;13.40;;
10142;SDS011;5112;54.088;13.446;2023-09-08T21:32:41;14.83;;;13.57;;
10142;SDS011;5112;54.088;13.446;2023-09-08T21:42:43;13.17;;;12.03;;
10142;SDS011;5112;54.088;13.446;2023-09-08T21:52:46;15.17;;;13.77;;
10142;SDS011;5112;54.088;13.446;2023-09-08T22:02:48;12.27;;;11.27;;
10142;SDS011;5112;54.088;13.446;2023-09-08T22:12:50;12.80;;;11.70;;
10142;SDS011;5112;54.088;13.446;2023-09-08T22:22:52;12.20;;;11.23;;
10142;SDS011;5112;54.088;13.446;2023-09-08T22:32:56;12.07;;;11.13;;
10142;SDS011;5112;54.088;13.446;2023-09-08T22:42:57;11.73;;;10.73;;
10142;SDS011;5112;54.088;13.446;2023-09-08T22:53:00;12.73;;;11.63;;
10142;SDS011;5112;54.088;13.446;2023-09-08T23:03:02;12.77;;;11.57;;
10142;SDS011;5112;54.088;13.446;2023-09-08T23:13:05;11.50;;;10.60;;
10142;SDS011;5112;54.088;13.446;2023-09-08T23:23:07;11.50;;;10.40;;
10142;SDS011;5112;54.088;13.446;2023-09-08T23:33:10;11.17;;;10.07;;
10142;SDS011;5112;54.088;13.446;2023-09-08T23:43:12;9.90;;;9.00;;
10142;SDS011;5112;54.088;13.446;2023-09-08T23:53:15;9.83;;;9.03;;
